7B1 weather

Rainbow Heliport
Peoria, Illinois, United States

Public forecast

Using degrees Fahrenheit for public forecast. Weather courtesy of forecast.io.

METAR (pilot weather report)

Closest report is General Wayne A. Downing Peoria International Airport, 6.7 nm (12.4 km) S. Retrieved 2019/06/17 19:54 UTC (16 minutes ago):

KPIA 171954Z 03004KT 10SM OVC014 20/16 A2999 RMK AO2 SLP153 T02000156 $

TAF (pilot weather forecast)

Closest forecast is General Wayne A. Downing Peoria International Airport, 6.7 nm (12.4 km) S. Retrieved 2019/06/17 18:22 UTC (2 hours ago):

TAF KPIA 171720Z 1718/1818 05007KT P6SM OVC018 FM172100 05005KT P6SM OVC045 FM180700 05003KT 5SM BR BKN025 FM181000 04003KT 4SM BR OVC009 FM181400 04003KT P6SM SCT012 BKN018